createdAt,value
2022-10-16T00:01:35.117Z,15.63
2022-10-16T00:04:06.871Z,15.63
2022-10-16T00:06:38.857Z,15.69
2022-10-16T00:09:10.622Z,15.71
2022-10-16T00:11:42.818Z,15.73
2022-10-16T00:14:15.761Z,15.74
2022-10-16T00:16:47.568Z,15.74
2022-10-16T00:19:20.494Z,15.70
2022-10-16T00:21:52.271Z,15.73
2022-10-16T00:24:24.141Z,15.74
2022-10-16T00:26:55.835Z,15.70
2022-10-16T00:29:27.602Z,15.68
2022-10-16T00:31:59.579Z,15.71
2022-10-16T00:34:31.421Z,15.75
2022-10-16T00:37:04.136Z,15.74
2022-10-16T00:39:36.315Z,15.77
2022-10-16T00:42:08.035Z,15.80
2022-10-16T00:44:53.545Z,15.81
2022-10-16T00:47:37.698Z,15.81
2022-10-16T00:50:25.472Z,15.82
2022-10-16T00:53:03.017Z,15.85
2022-10-16T00:55:37.671Z,15.86
2022-10-16T00:58:12.170Z,15.87
2022-10-16T01:00:44.281Z,15.89
2022-10-16T01:03:30.410Z,15.91
2022-10-16T01:06:27.860Z,15.94
2022-10-16T01:09:21.084Z,15.96
2022-10-16T01:12:21.616Z,15.95
2022-10-16T01:15:11.718Z,15.94
2022-10-16T01:17:52.452Z,15.92
2022-10-16T01:20:35.618Z,15.92
2022-10-16T01:23:31.466Z,15.91
2022-10-16T01:26:21.696Z,15.90
2022-10-16T01:29:00.405Z,15.91
2022-10-16T01:31:38.067Z,15.88
2022-10-16T01:34:15.761Z,15.88
2022-10-16T01:36:53.857Z,15.86
2022-10-16T01:39:31.006Z,15.83
2022-10-16T01:42:35.164Z,15.82
2022-10-16T01:45:14.267Z,15.77
2022-10-16T01:47:53.487Z,15.77
2022-10-16T01:50:25.794Z,15.75
2022-10-16T01:52:58.847Z,15.74
2022-10-16T01:55:34.834Z,15.73
2022-10-16T01:58:10.099Z,15.71
2022-10-16T02:00:47.504Z,15.71
2022-10-16T02:03:21.152Z,15.72
2022-10-16T02:05:56.345Z,15.73
2022-10-16T02:08:32.236Z,15.70
2022-10-16T02:11:04.000Z,15.69
2022-10-16T02:13:42.945Z,15.68
2022-10-16T02:16:15.482Z,15.64
2022-10-16T02:18:48.070Z,15.60
2022-10-16T02:21:39.324Z,15.58
2022-10-16T02:24:48.201Z,15.58
2022-10-16T02:27:39.690Z,15.54
2022-10-16T02:30:27.090Z,15.50
2022-10-16T02:33:01.563Z,15.49
2022-10-16T02:35:34.081Z,15.49
2022-10-16T02:38:07.243Z,15.48
2022-10-16T02:40:39.682Z,15.47
2022-10-16T02:43:12.466Z,15.45
2022-10-16T02:45:46.269Z,15.46
2022-10-16T02:48:18.069Z,15.47
2022-10-16T02:50:49.758Z,15.48
2022-10-16T02:53:21.438Z,15.51
2022-10-16T02:55:53.192Z,15.50
2022-10-16T02:58:24.841Z,15.52
2022-10-16T03:01:00.942Z,15.50
2022-10-16T03:03:33.918Z,15.49
2022-10-16T03:06:05.870Z,15.53
2022-10-16T03:08:37.645Z,15.55
2022-10-16T03:11:09.891Z,15.53
2022-10-16T03:13:42.618Z,15.58
2022-10-16T03:16:14.472Z,15.58
2022-10-16T03:18:49.623Z,15.60
2022-10-16T03:21:21.476Z,15.61
2022-10-16T03:23:53.110Z,15.62
2022-10-16T03:26:24.931Z,15.62
2022-10-16T03:28:56.640Z,15.60
2022-10-16T03:31:28.478Z,15.59
2022-10-16T03:34:00.124Z,15.60
2022-10-16T03:36:32.322Z,15.61
2022-10-16T03:39:04.179Z,15.64
2022-10-16T03:41:35.918Z,15.67
2022-10-16T03:44:07.703Z,15.69
2022-10-16T03:46:39.826Z,15.70
2022-10-16T03:49:11.495Z,15.70
2022-10-16T03:51:46.214Z,15.72
2022-10-16T03:54:18.160Z,15.70
2022-10-16T03:56:49.889Z,15.71
2022-10-16T03:59:21.697Z,15.72
2022-10-16T04:01:53.547Z,15.73
2022-10-16T04:04:25.979Z,15.72
2022-10-16T04:06:57.726Z,15.71
2022-10-16T04:09:29.566Z,15.70
2022-10-16T04:12:04.430Z,15.71
2022-10-16T04:14:36.130Z,15.70
2022-10-16T04:17:08.279Z,15.70
2022-10-16T04:19:39.958Z,15.70
2022-10-16T04:22:12.001Z,15.70
2022-10-16T04:24:43.651Z,15.68
2022-10-16T04:27:15.611Z,15.65
2022-10-16T04:29:48.697Z,15.63
2022-10-16T04:32:20.590Z,15.65
2022-10-16T04:34:52.764Z,15.65
2022-10-16T04:37:30.174Z,15.65
2022-10-16T04:40:04.467Z,15.64
2022-10-16T04:42:41.788Z,15.65
2022-10-16T04:45:16.428Z,15.65
2022-10-16T04:47:49.041Z,15.64
2022-10-16T04:50:20.686Z,15.64
2022-10-16T04:53:08.228Z,15.64
2022-10-16T04:55:40.188Z,15.61
2022-10-16T04:58:12.350Z,15.62
2022-10-16T05:00:45.371Z,15.61
2022-10-16T05:03:17.478Z,15.62
2022-10-16T05:05:49.579Z,15.61
2022-10-16T05:08:21.647Z,15.60
2022-10-16T05:10:53.431Z,15.59
2022-10-16T05:13:25.268Z,15.55
2022-10-16T05:15:57.175Z,15.54
2022-10-16T05:18:30.000Z,15.52
2022-10-16T05:21:01.709Z,15.50
2022-10-16T05:23:33.395Z,15.51
2022-10-16T05:26:05.210Z,15.49
2022-10-16T05:28:37.005Z,15.48
2022-10-16T05:31:10.386Z,15.50
2022-10-16T05:33:42.193Z,15.51
2022-10-16T05:36:14.055Z,15.52
2022-10-16T05:38:45.971Z,15.52
2022-10-16T05:41:22.382Z,15.49
2022-10-16T05:43:54.725Z,15.46
2022-10-16T05:46:26.361Z,15.46
2022-10-16T05:48:58.091Z,15.46
2022-10-16T05:51:29.801Z,15.43
2022-10-16T05:54:01.530Z,15.41
2022-10-16T05:56:37.366Z,15.39
2022-10-16T05:59:09.225Z,15.38
2022-10-16T06:01:40.943Z,15.32
2022-10-16T06:04:12.715Z,15.34
2022-10-16T06:06:44.533Z,15.34
2022-10-16T06:09:19.141Z,15.36
2022-10-16T06:11:50.955Z,15.39
2022-10-16T06:14:24.900Z,15.42
2022-10-16T06:16:56.648Z,15.44
2022-10-16T06:19:28.735Z,15.47
2022-10-16T06:22:05.345Z,15.49
2022-10-16T06:24:37.288Z,15.50
2022-10-16T06:27:09.145Z,15.50
2022-10-16T06:29:44.176Z,15.57
2022-10-16T06:32:15.960Z,15.63
2022-10-16T06:34:48.927Z,15.70
2022-10-16T06:37:21.834Z,15.77
2022-10-16T06:39:53.954Z,15.88
2022-10-16T06:42:25.847Z,15.97
2022-10-16T06:45:02.691Z,16.02
2022-10-16T06:47:34.527Z,16.07
2022-10-16T06:50:10.051Z,16.10
2022-10-16T06:52:41.848Z,16.10
2022-10-16T06:55:13.749Z,16.11
2022-10-16T06:57:48.503Z,16.12
2022-10-16T07:00:20.559Z,16.13
2022-10-16T07:02:52.487Z,16.29
2022-10-16T07:05:24.256Z,16.41
2022-10-16T07:07:56.273Z,16.48
2022-10-16T07:10:28.043Z,16.54
2022-10-16T07:12:59.722Z,16.58
2022-10-16T07:15:31.419Z,16.61
2022-10-16T07:18:06.005Z,16.63
2022-10-16T07:20:38.647Z,16.65
2022-10-16T07:23:10.271Z,16.64
2022-10-16T07:25:41.994Z,16.69
2022-10-16T07:28:13.795Z,16.71
2022-10-16T07:30:45.630Z,16.73
2022-10-16T07:33:17.491Z,16.75
2022-10-16T07:35:55.000Z,16.73
2022-10-16T07:38:26.750Z,16.77
2022-10-16T07:41:03.838Z,16.84
2022-10-16T07:43:35.668Z,16.92
2022-10-16T07:46:08.030Z,16.92
2022-10-16T07:48:39.782Z,16.92
2022-10-16T07:51:21.522Z,16.96
2022-10-16T07:53:54.070Z,16.99
2022-10-16T07:56:26.991Z,17.04
2022-10-16T07:58:58.893Z,17.10
2022-10-16T08:01:30.739Z,17.17
2022-10-16T08:06:42.458Z,17.19
2022-10-16T08:09:14.224Z,17.29
2022-10-16T08:11:46.110Z,17.35
2022-10-16T08:14:18.100Z,17.40
2022-10-16T08:16:51.040Z,17.46
2022-10-16T08:19:23.118Z,17.53
2022-10-16T08:21:55.155Z,17.52
2022-10-16T08:24:27.586Z,17.61
2022-10-16T08:26:59.662Z,17.71
2022-10-16T08:29:34.197Z,17.85
2022-10-16T08:32:06.074Z,17.88
2022-10-16T08:34:37.811Z,17.98
2022-10-16T08:37:12.369Z,18.07
2022-10-16T08:39:43.988Z,18.15
2022-10-16T08:42:21.874Z,18.22
2022-10-16T08:45:02.752Z,18.27
2022-10-16T08:47:46.345Z,18.32
2022-10-16T08:50:44.656Z,18.36
2022-10-16T08:53:23.954Z,18.39
2022-10-16T08:55:56.119Z,18.33
2022-10-16T08:58:30.290Z,18.35
2022-10-16T09:01:05.949Z,18.39
2022-10-16T09:04:05.747Z,18.38
2022-10-16T09:06:46.645Z,18.44
2022-10-16T09:09:51.077Z,18.53
2022-10-16T09:12:41.291Z,18.68
2022-10-16T09:15:27.341Z,18.92
2022-10-16T09:18:32.807Z,19.24
2022-10-16T09:21:22.918Z,19.52
2022-10-16T09:24:00.806Z,19.75
2022-10-16T09:26:32.766Z,20.06
2022-10-16T09:29:04.485Z,20.59
2022-10-16T09:31:37.500Z,21.15
2022-10-16T09:34:28.514Z,21.79
2022-10-16T09:37:04.266Z,22.44
2022-10-16T09:39:50.350Z,23.15
2022-10-16T09:42:29.684Z,23.68
2022-10-16T09:45:02.162Z,24.37
2022-10-16T09:47:40.742Z,24.98
2022-10-16T09:50:27.616Z,25.26
2022-10-16T09:53:16.136Z,25.68
2022-10-16T09:55:54.003Z,26.05
2022-10-16T09:58:26.033Z,25.81
2022-10-16T10:00:57.878Z,25.49
2022-10-16T10:03:41.728Z,26.19
2022-10-16T10:06:38.968Z,26.71
2022-10-16T10:09:24.509Z,27.03
2022-10-16T10:12:04.145Z,26.96
2022-10-16T10:14:48.880Z,26.99
2022-10-16T10:17:23.294Z,26.98
2022-10-16T10:19:56.243Z,26.88
2022-10-16T10:22:28.068Z,26.99
2022-10-16T10:25:19.949Z,27.04
2022-10-16T10:27:57.330Z,27.23
2022-10-16T10:30:47.487Z,27.33
2022-10-16T10:33:34.132Z,26.89
2022-10-16T10:36:14.193Z,26.43
2022-10-16T10:38:54.215Z,25.90
2022-10-16T10:41:31.285Z,25.54
2022-10-16T10:44:12.524Z,25.28
2022-10-16T10:46:53.161Z,25.19
2022-10-16T10:49:37.601Z,24.91
2022-10-16T10:52:27.918Z,24.54
2022-10-16T10:55:26.837Z,24.12
2022-10-16T10:58:16.381Z,23.76
2022-10-16T11:01:10.239Z,23.64
2022-10-16T11:03:47.646Z,23.66
2022-10-16T11:06:26.057Z,23.83
2022-10-16T11:09:16.208Z,23.80
2022-10-16T11:11:58.021Z,23.86
2022-10-16T11:14:36.029Z,23.88
2022-10-16T11:17:29.325Z,23.88
2022-10-16T11:20:20.890Z,23.87
2022-10-16T11:23:27.933Z,23.78
2022-10-16T11:26:03.246Z,23.78
2022-10-16T11:28:41.102Z,23.76
2022-10-16T11:31:20.361Z,23.76
2022-10-16T11:34:26.257Z,23.82
2022-10-16T11:37:13.078Z,23.75
2022-10-16T11:39:45.671Z,23.78
2022-10-16T11:42:28.325Z,23.71
2022-10-16T11:45:33.712Z,23.56
2022-10-16T11:48:32.738Z,23.38
2022-10-16T11:51:15.513Z,23.23
2022-10-16T11:53:52.084Z,23.22
2022-10-16T11:56:26.184Z,23.19
2022-10-16T11:59:03.982Z,23.22
2022-10-16T12:01:44.967Z,23.23
2022-10-16T12:04:23.963Z,23.20
2022-10-16T12:07:14.142Z,23.18
2022-10-16T12:09:46.111Z,23.21
2022-10-16T12:12:36.974Z,23.17
2022-10-16T12:16:01.868Z,23.19
2022-10-16T12:18:25.325Z,23.27
2022-10-16T12:21:06.180Z,23.36
2022-10-16T12:23:47.688Z,23.44
2022-10-16T12:26:40.357Z,23.44
2022-10-16T12:29:27.167Z,23.34
2022-10-16T12:31:59.183Z,23.29
2022-10-16T12:34:40.279Z,23.30
2022-10-16T12:37:24.096Z,23.37
2022-10-16T12:40:00.096Z,23.54
2022-10-16T12:42:35.292Z,23.85
2022-10-16T12:45:35.136Z,24.31
2022-10-16T12:48:22.125Z,24.71
2022-10-16T12:50:55.833Z,24.94
2022-10-16T12:53:29.148Z,24.78
2022-10-16T12:56:33.376Z,24.67
2022-10-16T12:59:23.903Z,24.55
2022-10-16T13:02:18.012Z,24.59
2022-10-16T13:05:09.827Z,24.70
2022-10-16T13:07:53.470Z,24.78
2022-10-16T13:10:35.694Z,24.81
2022-10-16T13:13:19.032Z,24.75
2022-10-16T13:16:26.967Z,24.71
2022-10-16T13:19:28.749Z,24.76
2022-10-16T13:22:06.602Z,24.70
2022-10-16T13:24:53.946Z,24.53
2022-10-16T13:27:34.973Z,24.41
2022-10-16T13:30:18.708Z,24.29
2022-10-16T13:32:59.354Z,24.24
2022-10-16T13:35:34.610Z,24.19
2022-10-16T13:38:14.802Z,24.11
2022-10-16T13:41:07.167Z,24.08
2022-10-16T13:43:42.785Z,24.03
2022-10-16T13:46:20.048Z,23.96
2022-10-16T13:49:06.769Z,23.83
2022-10-16T13:51:38.441Z,23.77
2022-10-16T13:54:12.625Z,23.73
2022-10-16T13:56:44.301Z,23.67
2022-10-16T13:59:27.744Z,23.63
2022-10-16T14:02:01.187Z,23.59
2022-10-16T14:04:43.282Z,23.51
2022-10-16T14:07:23.347Z,23.43
2022-10-16T14:09:56.916Z,23.34
2022-10-16T14:12:33.800Z,23.27
2022-10-16T14:15:06.950Z,23.22
2022-10-16T14:17:46.810Z,23.17
2022-10-16T14:20:19.516Z,23.11
2022-10-16T14:23:03.560Z,23.06
2022-10-16T14:25:36.821Z,23.02
2022-10-16T14:28:14.449Z,22.99
2022-10-16T14:30:56.423Z,22.95
2022-10-16T14:33:31.084Z,22.91
2022-10-16T14:36:13.724Z,22.84
2022-10-16T14:39:06.785Z,22.79
2022-10-16T14:41:50.395Z,22.75
2022-10-16T14:44:30.854Z,22.73
2022-10-16T14:47:15.547Z,22.69
2022-10-16T14:49:47.054Z,22.65
2022-10-16T14:52:19.084Z,22.62
2022-10-16T14:54:51.967Z,22.61
2022-10-16T14:57:27.603Z,22.60
2022-10-16T14:59:59.678Z,22.60
2022-10-16T15:02:34.179Z,22.58
2022-10-16T15:05:27.414Z,22.61
2022-10-16T15:08:00.254Z,22.63
2022-10-16T15:10:34.058Z,22.66
2022-10-16T15:13:05.881Z,22.67
2022-10-16T15:15:45.600Z,22.70
2022-10-16T15:18:21.275Z,22.67
2022-10-16T15:20:53.352Z,22.65
2022-10-16T15:25:58.117Z,22.55
2022-10-16T15:28:29.857Z,22.50
2022-10-16T15:31:01.682Z,22.49
2022-10-16T15:33:38.907Z,22.45
2022-10-16T15:36:11.758Z,22.38
2022-10-16T15:38:43.512Z,22.32
2022-10-16T15:41:18.129Z,22.24
2022-10-16T15:43:51.161Z,22.18
2022-10-16T15:46:25.032Z,22.11
2022-10-16T15:48:58.744Z,22.03
2022-10-16T15:51:30.598Z,21.95
2022-10-16T15:54:02.929Z,21.86
2022-10-16T15:56:34.919Z,21.78
2022-10-16T15:59:06.709Z,21.68
2022-10-16T16:01:40.086Z,21.58
2022-10-16T16:04:32.058Z,21.50
2022-10-16T16:07:05.058Z,21.43
2022-10-16T16:09:37.340Z,21.35
2022-10-16T16:12:09.317Z,21.31
2022-10-16T16:14:41.089Z,21.27
2022-10-16T16:17:13.137Z,21.19
2022-10-16T16:19:44.846Z,21.13
2022-10-16T16:22:16.515Z,21.05
2022-10-16T16:24:48.293Z,20.98
2022-10-16T16:27:20.930Z,20.92
2022-10-16T16:29:52.698Z,20.88
2022-10-16T16:32:24.404Z,20.79
2022-10-16T16:34:56.140Z,20.72
2022-10-16T16:37:28.216Z,20.68
2022-10-16T16:40:00.480Z,20.64
2022-10-16T16:42:32.190Z,20.60
2022-10-16T16:45:04.296Z,20.57
2022-10-16T16:47:36.285Z,20.52
2022-10-16T16:50:08.505Z,20.48
2022-10-16T16:52:40.201Z,20.40
2022-10-16T16:55:15.041Z,20.34
2022-10-16T16:57:49.250Z,20.25
2022-10-16T17:00:21.012Z,20.20
2022-10-16T17:02:52.829Z,20.12
2022-10-16T17:05:24.630Z,20.07
2022-10-16T17:07:56.386Z,20.02
2022-10-16T17:10:28.209Z,19.95
2022-10-16T17:13:01.949Z,19.89
2022-10-16T17:15:34.172Z,19.84
2022-10-16T17:18:06.896Z,19.79
2022-10-16T17:20:38.627Z,19.74
2022-10-16T17:23:12.072Z,19.70
2022-10-16T17:25:43.913Z,19.69
2022-10-16T17:28:15.585Z,19.66
2022-10-16T17:30:47.424Z,19.62
2022-10-16T17:33:21.990Z,19.59
2022-10-16T17:35:53.804Z,19.58
2022-10-16T17:38:25.514Z,19.57
2022-10-16T17:40:57.378Z,19.55
2022-10-16T17:43:33.132Z,19.52
2022-10-16T17:46:05.231Z,19.50
2022-10-16T17:48:42.210Z,19.44
2022-10-16T17:51:17.064Z,19.40
2022-10-16T17:53:54.298Z,19.35
2022-10-16T17:56:26.880Z,19.29
2022-10-16T17:59:00.974Z,19.23
2022-10-16T18:01:36.339Z,19.20
2022-10-16T18:04:13.075Z,19.18
2022-10-16T18:06:45.791Z,19.14
2022-10-16T18:09:19.332Z,19.09
2022-10-16T18:11:59.494Z,19.02
2022-10-16T18:14:32.642Z,18.96
2022-10-16T18:17:05.406Z,18.93
2022-10-16T18:19:37.465Z,18.92
2022-10-16T18:22:09.192Z,18.88
2022-10-16T18:24:40.932Z,18.83
2022-10-16T18:27:15.551Z,18.76
2022-10-16T18:29:47.318Z,18.75
2022-10-16T18:32:19.024Z,18.73
2022-10-16T18:34:50.786Z,18.69
2022-10-16T18:37:22.728Z,18.64
2022-10-16T18:39:54.583Z,18.61
2022-10-16T18:42:26.355Z,18.56
2022-10-16T18:44:58.077Z,18.51
2022-10-16T18:47:30.620Z,18.46
2022-10-16T18:50:02.424Z,18.39
2022-10-16T18:52:35.400Z,18.33
2022-10-16T18:55:11.405Z,18.31
2022-10-16T18:57:43.396Z,18.28
2022-10-16T19:00:15.094Z,18.24
2022-10-16T19:02:47.011Z,18.20
2022-10-16T19:05:18.741Z,18.12
2022-10-16T19:07:50.645Z,18.08
2022-10-16T19:10:23.248Z,18.01
2022-10-16T19:12:54.978Z,17.97
2022-10-16T19:15:27.038Z,17.93
2022-10-16T19:17:59.813Z,17.89
2022-10-16T19:20:32.823Z,17.87
2022-10-16T19:23:04.536Z,17.76
2022-10-16T19:25:42.312Z,17.70
2022-10-16T19:28:14.158Z,17.67
2022-10-16T19:30:46.419Z,17.63
2022-10-16T19:33:18.244Z,17.60
2022-10-16T19:35:52.621Z,17.56
2022-10-16T19:38:24.284Z,17.49
2022-10-16T19:40:56.014Z,17.42
2022-10-16T19:43:27.685Z,17.34
2022-10-16T19:46:04.687Z,17.27
2022-10-16T19:48:36.973Z,17.19
2022-10-16T19:51:12.490Z,17.13
2022-10-16T19:53:46.529Z,17.09
2022-10-16T19:56:23.774Z,17.06
2022-10-16T19:58:57.312Z,16.99
2022-10-16T20:01:30.808Z,16.95
2022-10-16T20:04:02.781Z,16.89
2022-10-16T20:06:34.549Z,16.84
2022-10-16T20:09:06.889Z,16.79
2022-10-16T20:11:39.158Z,16.75
2022-10-16T20:14:10.999Z,16.73
2022-10-16T20:16:43.222Z,16.72
2022-10-16T20:19:14.955Z,16.68
2022-10-16T20:21:46.806Z,16.64
2022-10-16T20:24:19.116Z,16.61
2022-10-16T20:26:50.948Z,16.59
2022-10-16T20:29:24.907Z,16.56
2022-10-16T20:31:56.652Z,16.54
2022-10-16T20:34:28.481Z,16.53
2022-10-16T20:37:00.447Z,16.50
2022-10-16T20:39:32.295Z,16.49
2022-10-16T20:42:04.060Z,16.45
2022-10-16T20:44:35.947Z,16.43
2022-10-16T20:47:07.722Z,16.42
2022-10-16T20:49:41.175Z,16.38
2022-10-16T20:52:13.062Z,16.38
2022-10-16T20:54:45.824Z,16.38
2022-10-16T20:57:19.660Z,16.38
2022-10-16T20:59:55.470Z,16.35
2022-10-16T21:02:27.622Z,16.34
2022-10-16T21:04:59.485Z,16.32
2022-10-16T21:07:31.212Z,16.31
2022-10-16T21:10:04.459Z,16.31
2022-10-16T21:12:36.206Z,16.29
2022-10-16T21:15:15.889Z,16.29
2022-10-16T21:17:52.029Z,16.29
2022-10-16T21:20:27.002Z,16.30
2022-10-16T21:22:58.738Z,16.31
2022-10-16T21:25:30.806Z,16.29
2022-10-16T21:28:02.510Z,16.29
2022-10-16T21:30:34.474Z,16.30
2022-10-16T21:33:06.164Z,16.30
2022-10-16T21:35:37.974Z,16.29
2022-10-16T21:38:12.779Z,16.27
2022-10-16T21:40:45.605Z,16.24
2022-10-16T21:43:17.602Z,16.22
2022-10-16T21:45:49.299Z,16.17
2022-10-16T21:48:21.202Z,16.16
2022-10-16T21:50:52.843Z,16.15
2022-10-16T21:53:24.531Z,16.14
2022-10-16T21:55:56.645Z,16.13
2022-10-16T21:58:31.365Z,16.12
2022-10-16T22:01:10.989Z,16.08
2022-10-16T22:03:46.646Z,16.04
2022-10-16T22:09:00.945Z,15.99
2022-10-16T22:11:39.173Z,15.95
2022-10-16T22:14:13.647Z,15.92
2022-10-16T22:16:45.956Z,15.89
2022-10-16T22:19:23.053Z,15.85
2022-10-16T22:21:57.265Z,15.81
2022-10-16T22:24:29.124Z,15.79
2022-10-16T22:27:00.835Z,15.78
2022-10-16T22:29:32.509Z,15.75
2022-10-16T22:32:04.371Z,15.76
2022-10-16T22:34:36.413Z,15.71
2022-10-16T22:37:08.102Z,15.66
2022-10-16T22:39:39.739Z,15.64
2022-10-16T22:42:11.478Z,15.62
2022-10-16T22:44:43.169Z,15.60
2022-10-16T22:47:15.011Z,15.57
2022-10-16T22:49:46.772Z,15.53
2022-10-16T22:52:18.655Z,15.50
2022-10-16T22:54:53.186Z,15.49
2022-10-16T22:57:24.708Z,15.47
2022-10-16T22:59:56.441Z,15.41
2022-10-16T23:02:31.356Z,15.38
2022-10-16T23:05:05.390Z,15.35
2022-10-16T23:07:38.174Z,15.32
2022-10-16T23:10:10.014Z,15.29
2022-10-16T23:12:41.808Z,15.29
2022-10-16T23:15:14.171Z,15.26
2022-10-16T23:17:45.857Z,15.25
2022-10-16T23:20:17.659Z,15.25
2022-10-16T23:22:49.363Z,15.21
2022-10-16T23:25:21.100Z,15.19
2022-10-16T23:27:56.182Z,15.17
2022-10-16T23:30:27.886Z,15.14
2022-10-16T23:32:59.647Z,15.15
2022-10-16T23:35:31.418Z,15.07
2022-10-16T23:38:03.202Z,15.04
2022-10-16T23:40:34.935Z,14.98
2022-10-16T23:43:06.622Z,14.94
2022-10-16T23:45:38.339Z,14.92
2022-10-16T23:48:10.349Z,14.87
2022-10-16T23:50:42.082Z,14.83
2022-10-16T23:53:14.322Z,14.79
2022-10-16T23:55:46.135Z,14.75
2022-10-16T23:58:21.136Z,14.74
